sensor_id;sensor_type;location;lat;lon;timestamp;P1;durP1;ratioP1;P2;durP2;ratioP2
12970;SDS011;6550;48.650;8.774;2023-02-01T00:01:24;3.57;;;2.97;;
12970;SDS011;6550;48.650;8.774;2023-02-01T00:03:51;2.50;;;2.30;;
12970;SDS011;6550;48.650;8.774;2023-02-01T00:06:17;3.17;;;2.70;;
12970;SDS011;6550;48.650;8.774;2023-02-01T00:08:44;2.40;;;2.20;;
12970;SDS011;6550;48.650;8.774;2023-02-01T00:11:13;2.67;;;2.47;;
12970;SDS011;6550;48.650;8.774;2023-02-01T00:13:43;2.43;;;2.23;;
12970;SDS011;6550;48.650;8.774;2023-02-01T00:16:13;2.57;;;2.37;;
12970;SDS011;6550;48.650;8.774;2023-02-01T00:18:45;2.63;;;2.20;;
12970;SDS011;6550;48.650;8.774;2023-02-01T00:21:17;2.70;;;2.27;;
12970;SDS011;6550;48.650;8.774;2023-02-01T00:23:45;2.50;;;2.30;;
12970;SDS011;6550;48.650;8.774;2023-02-01T00:29:00;2.50;;;2.30;;
12970;SDS011;6550;48.650;8.774;2023-02-01T00:31:30;2.38;;;2.17;;
12970;SDS011;6550;48.650;8.774;2023-02-01T00:34:00;2.50;;;2.13;;
12970;SDS011;6550;48.650;8.774;2023-02-01T00:36:26;2.00;;;1.80;;
12970;SDS011;6550;48.650;8.774;2023-02-01T00:38:54;2.00;;;1.90;;
12970;SDS011;6550;48.650;8.774;2023-02-01T00:41:24;2.30;;;1.80;;
12970;SDS011;6550;48.650;8.774;2023-02-01T00:43:55;2.00;;;1.80;;
12970;SDS011;6550;48.650;8.774;2023-02-01T00:46:22;2.20;;;2.00;;
12970;SDS011;6550;48.650;8.774;2023-02-01T00:48:51;2.37;;;2.17;;
12970;SDS011;6550;48.650;8.774;2023-02-01T00:51:19;1.87;;;1.77;;
12970;SDS011;6550;48.650;8.774;2023-02-01T00:53:48;2.10;;;2.00;;
12970;SDS011;6550;48.650;8.774;2023-02-01T00:56:18;2.10;;;1.90;;
12970;SDS011;6550;48.650;8.774;2023-02-01T00:58:47;1.90;;;1.80;;
12970;SDS011;6550;48.650;8.774;2023-02-01T01:01:18;1.83;;;1.73;;
12970;SDS011;6550;48.650;8.774;2023-02-01T01:03:51;1.93;;;1.83;;
12970;SDS011;6550;48.650;8.774;2023-02-01T01:06:20;1.70;;;1.60;;
12970;SDS011;6550;48.650;8.774;2023-02-01T01:08:53;2.00;;;1.80;;
12970;SDS011;6550;48.650;8.774;2023-02-01T01:11:25;1.93;;;1.73;;
12970;SDS011;6550;48.650;8.774;2023-02-01T01:13:54;1.90;;;1.80;;
12970;SDS011;6550;48.650;8.774;2023-02-01T01:16:26;2.03;;;1.60;;
12970;SDS011;6550;48.650;8.774;2023-02-01T01:18:54;1.83;;;1.73;;
12970;SDS011;6550;48.650;8.774;2023-02-01T01:21:24;1.70;;;1.60;;
12970;SDS011;6550;48.650;8.774;2023-02-01T01:23:54;1.43;;;1.33;;
12970;SDS011;6550;48.650;8.774;2023-02-01T01:26:21;1.63;;;1.53;;
12970;SDS011;6550;48.650;8.774;2023-02-01T01:28:57;1.47;;;1.37;;
12970;SDS011;6550;48.650;8.774;2023-02-01T01:31:25;1.50;;;1.40;;
12970;SDS011;6550;48.650;8.774;2023-02-01T01:33:53;1.63;;;1.50;;
12970;SDS011;6550;48.650;8.774;2023-02-01T01:36:22;1.43;;;1.33;;
12970;SDS011;6550;48.650;8.774;2023-02-01T01:38:49;1.77;;;1.67;;
12970;SDS011;6550;48.650;8.774;2023-02-01T01:41:19;1.67;;;1.40;;
12970;SDS011;6550;48.650;8.774;2023-02-01T01:43:51;1.33;;;1.30;;
12970;SDS011;6550;48.650;8.774;2023-02-01T01:46:32;1.67;;;1.57;;
12970;SDS011;6550;48.650;8.774;2023-02-01T01:51:48;1.63;;;1.30;;
12970;SDS011;6550;48.650;8.774;2023-02-01T01:54:28;1.20;;;1.20;;
12970;SDS011;6550;48.650;8.774;2023-02-01T01:57:01;1.40;;;1.30;;
12970;SDS011;6550;48.650;8.774;2023-02-01T01:59:32;1.53;;;1.40;;
12970;SDS011;6550;48.650;8.774;2023-02-01T02:02:03;1.50;;;1.40;;
12970;SDS011;6550;48.650;8.774;2023-02-01T02:04:31;1.30;;;1.13;;
12970;SDS011;6550;48.650;8.774;2023-02-01T02:07:00;1.20;;;0.93;;
12970;SDS011;6550;48.650;8.774;2023-02-01T02:09:31;1.23;;;1.17;;
12970;SDS011;6550;48.650;8.774;2023-02-01T02:12:00;1.30;;;1.20;;
12970;SDS011;6550;48.650;8.774;2023-02-01T02:14:28;1.40;;;1.30;;
12970;SDS011;6550;48.650;8.774;2023-02-01T02:17:15;1.40;;;1.30;;
12970;SDS011;6550;48.650;8.774;2023-02-01T02:20:11;1.40;;;1.30;;
12970;SDS011;6550;48.650;8.774;2023-02-01T02:45:30;1.40;;;1.30;;
12970;SDS011;6550;48.650;8.774;2023-02-01T02:48:20;1.47;;;1.37;;
12970;SDS011;6550;48.650;8.774;2023-02-01T02:51:03;1.30;;;1.20;;
12970;SDS011;6550;48.650;8.774;2023-02-01T02:56:53;1.30;;;1.20;;
12970;SDS011;6550;48.650;8.774;2023-02-01T02:59:41;1.30;;;1.20;;
12970;SDS011;6550;48.650;8.774;2023-02-01T03:02:29;1.20;;;1.10;;
12970;SDS011;6550;48.650;8.774;2023-02-01T03:05:18;1.40;;;1.30;;
12970;SDS011;6550;48.650;8.774;2023-02-01T03:10:17;1.33;;;1.23;;
12970;SDS011;6550;48.650;8.774;2023-02-01T03:13:02;1.27;;;1.17;;
12970;SDS011;6550;48.650;8.774;2023-02-01T03:15:38;1.00;;;1.00;;
12970;SDS011;6550;48.650;8.774;2023-02-01T03:20:59;1.20;;;1.10;;
12970;SDS011;6550;48.650;8.774;2023-02-01T03:23:33;1.03;;;1.03;;
12970;SDS011;6550;48.650;8.774;2023-02-01T03:26:05;1.40;;;1.30;;
12970;SDS011;6550;48.650;8.774;2023-02-01T03:28:36;1.20;;;1.10;;
12970;SDS011;6550;48.650;8.774;2023-02-01T03:31:08;0.80;;;0.80;;
12970;SDS011;6550;48.650;8.774;2023-02-01T03:33:35;1.30;;;1.20;;
12970;SDS011;6550;48.650;8.774;2023-02-01T03:36:14;1.17;;;1.00;;
12970;SDS011;6550;48.650;8.774;2023-02-01T03:42:03;1.57;;;1.13;;
12970;SDS011;6550;48.650;8.774;2023-02-01T03:47:17;1.63;;;1.33;;
12970;SDS011;6550;48.650;8.774;2023-02-01T03:49:50;1.23;;;1.13;;
12970;SDS011;6550;48.650;8.774;2023-02-01T03:52:42;1.23;;;1.13;;
12970;SDS011;6550;48.650;8.774;2023-02-01T03:55:13;1.33;;;1.23;;
12970;SDS011;6550;48.650;8.774;2023-02-01T03:57:46;1.23;;;1.13;;
12970;SDS011;6550;48.650;8.774;2023-02-01T04:00:23;1.53;;;1.43;;
12970;SDS011;6550;48.650;8.774;2023-02-01T04:02:55;1.83;;;1.20;;
12970;SDS011;6550;48.650;8.774;2023-02-01T04:05:24;1.60;;;1.20;;
12970;SDS011;6550;48.650;8.774;2023-02-01T04:07:51;1.30;;;1.20;;
12970;SDS011;6550;48.650;8.774;2023-02-01T04:10:20;1.80;;;1.40;;
12970;SDS011;6550;48.650;8.774;2023-02-01T04:12:51;1.27;;;1.17;;
12970;SDS011;6550;48.650;8.774;2023-02-01T04:15:20;1.10;;;1.00;;
12970;SDS011;6550;48.650;8.774;2023-02-01T04:17:46;1.57;;;1.30;;
12970;SDS011;6550;48.650;8.774;2023-02-01T04:20:13;2.40;;;1.10;;
12970;SDS011;6550;48.650;8.774;2023-02-01T04:22:40;1.20;;;1.10;;
12970;SDS011;6550;48.650;8.774;2023-02-01T04:25:07;1.23;;;1.07;;
12970;SDS011;6550;48.650;8.774;2023-02-01T04:27:39;1.60;;;1.00;;
12970;SDS011;6550;48.650;8.774;2023-02-01T04:30:08;1.00;;;0.90;;
12970;SDS011;6550;48.650;8.774;2023-02-01T04:32:36;1.10;;;1.00;;
12970;SDS011;6550;48.650;8.774;2023-02-01T04:35:03;1.40;;;1.30;;
12970;SDS011;6550;48.650;8.774;2023-02-01T04:37:33;1.97;;;1.30;;
12970;SDS011;6550;48.650;8.774;2023-02-01T04:40:00;1.40;;;1.20;;
12970;SDS011;6550;48.650;8.774;2023-02-01T04:42:29;2.20;;;0.97;;
12970;SDS011;6550;48.650;8.774;2023-02-01T04:44:58;1.20;;;1.10;;
12970;SDS011;6550;48.650;8.774;2023-02-01T04:47:30;1.10;;;1.00;;
12970;SDS011;6550;48.650;8.774;2023-02-01T04:49:56;1.30;;;1.20;;
12970;SDS011;6550;48.650;8.774;2023-02-01T04:52:25;1.30;;;1.20;;
12970;SDS011;6550;48.650;8.774;2023-02-01T04:54:54;1.50;;;1.07;;
12970;SDS011;6550;48.650;8.774;2023-02-01T04:57:27;1.70;;;1.13;;
12970;SDS011;6550;48.650;8.774;2023-02-01T04:59:53;2.20;;;1.10;;
12970;SDS011;6550;48.650;8.774;2023-02-01T05:02:22;1.47;;;1.10;;
12970;SDS011;6550;48.650;8.774;2023-02-01T05:04:49;1.20;;;1.10;;
12970;SDS011;6550;48.650;8.774;2023-02-01T05:07:16;1.30;;;1.20;;
12970;SDS011;6550;48.650;8.774;2023-02-01T05:09:45;1.17;;;1.07;;
12970;SDS011;6550;48.650;8.774;2023-02-01T05:12:12;1.50;;;1.40;;
12970;SDS011;6550;48.650;8.774;2023-02-01T05:15:00;1.20;;;1.10;;
12970;SDS011;6550;48.650;8.774;2023-02-01T05:17:26;1.90;;;1.30;;
12970;SDS011;6550;48.650;8.774;2023-02-01T05:19:53;1.40;;;1.17;;
12970;SDS011;6550;48.650;8.774;2023-02-01T05:22:20;1.10;;;1.00;;
12970;SDS011;6550;48.650;8.774;2023-02-01T05:24:46;1.00;;;0.93;;
12970;SDS011;6550;48.650;8.774;2023-02-01T05:27:15;1.33;;;1.23;;
12970;SDS011;6550;48.650;8.774;2023-02-01T05:29:42;1.93;;;1.30;;
12970;SDS011;6550;48.650;8.774;2023-02-01T05:32:11;1.80;;;1.30;;
12970;SDS011;6550;48.650;8.774;2023-02-01T05:34:48;1.30;;;1.20;;
12970;SDS011;6550;48.650;8.774;2023-02-01T05:37:17;1.83;;;1.40;;
12970;SDS011;6550;48.650;8.774;2023-02-01T05:39:46;1.60;;;1.50;;
12970;SDS011;6550;48.650;8.774;2023-02-01T05:42:13;1.47;;;1.37;;
12970;SDS011;6550;48.650;8.774;2023-02-01T05:44:39;1.30;;;1.20;;
12970;SDS011;6550;48.650;8.774;2023-02-01T05:47:06;1.53;;;1.40;;
12970;SDS011;6550;48.650;8.774;2023-02-01T05:49:33;1.83;;;1.37;;
12970;SDS011;6550;48.650;8.774;2023-02-01T05:52:02;1.60;;;1.40;;
12970;SDS011;6550;48.650;8.774;2023-02-01T05:54:29;1.43;;;1.30;;
12970;SDS011;6550;48.650;8.774;2023-02-01T05:57:00;1.43;;;1.33;;
12970;SDS011;6550;48.650;8.774;2023-02-01T05:59:27;1.63;;;1.23;;
12970;SDS011;6550;48.650;8.774;2023-02-01T06:01:56;1.50;;;1.40;;
12970;SDS011;6550;48.650;8.774;2023-02-01T06:04:25;1.40;;;1.30;;
12970;SDS011;6550;48.650;8.774;2023-02-01T06:06:52;3.20;;;1.53;;
12970;SDS011;6550;48.650;8.774;2023-02-01T06:11:47;1.87;;;1.33;;
12970;SDS011;6550;48.650;8.774;2023-02-01T06:14:13;1.73;;;1.47;;
12970;SDS011;6550;48.650;8.774;2023-02-01T06:16:40;1.50;;;1.40;;
12970;SDS011;6550;48.650;8.774;2023-02-01T06:19:07;1.57;;;1.47;;
12970;SDS011;6550;48.650;8.774;2023-02-01T06:21:36;2.50;;;1.33;;
12970;SDS011;6550;48.650;8.774;2023-02-01T06:24:05;1.83;;;1.73;;
12970;SDS011;6550;48.650;8.774;2023-02-01T06:26:32;1.93;;;1.60;;
12970;SDS011;6550;48.650;8.774;2023-02-01T06:29:01;2.07;;;1.60;;
12970;SDS011;6550;48.650;8.774;2023-02-01T06:31:28;2.07;;;1.50;;
12970;SDS011;6550;48.650;8.774;2023-02-01T06:33:55;1.60;;;1.50;;
12970;SDS011;6550;48.650;8.774;2023-02-01T06:36:24;1.90;;;1.63;;
12970;SDS011;6550;48.650;8.774;2023-02-01T06:38:53;3.47;;;2.17;;
12970;SDS011;6550;48.650;8.774;2023-02-01T06:41:21;1.87;;;1.70;;
12970;SDS011;6550;48.650;8.774;2023-02-01T06:43:48;2.03;;;1.83;;
12970;SDS011;6550;48.650;8.774;2023-02-01T06:46:17;2.63;;;1.97;;
12970;SDS011;6550;48.650;8.774;2023-02-01T06:48:44;2.33;;;1.80;;
12970;SDS011;6550;48.650;8.774;2023-02-01T06:51:18;6.57;;;2.00;;
12970;SDS011;6550;48.650;8.774;2023-02-01T06:53:51;12.40;;;2.10;;
12970;SDS011;6550;48.650;8.774;2023-02-01T06:56:18;4.53;;;2.50;;
12970;SDS011;6550;48.650;8.774;2023-02-01T06:58:48;2.20;;;2.00;;
12970;SDS011;6550;48.650;8.774;2023-02-01T07:01:18;4.10;;;2.60;;
12970;SDS011;6550;48.650;8.774;2023-02-01T07:03:51;1.93;;;1.73;;
12970;SDS011;6550;48.650;8.774;2023-02-01T07:06:18;3.40;;;2.00;;
12970;SDS011;6550;48.650;8.774;2023-02-01T07:08:45;3.00;;;2.13;;
12970;SDS011;6550;48.650;8.774;2023-02-01T07:11:14;2.57;;;2.37;;
12970;SDS011;6550;48.650;8.774;2023-02-01T07:13:42;6.87;;;2.53;;
12970;SDS011;6550;48.650;8.774;2023-02-01T07:16:12;2.43;;;1.97;;
12970;SDS011;6550;48.650;8.774;2023-02-01T07:18:46;2.57;;;2.07;;
12970;SDS011;6550;48.650;8.774;2023-02-01T07:21:13;2.40;;;2.03;;
12970;SDS011;6550;48.650;8.774;2023-02-01T07:23:40;2.80;;;2.10;;
12970;SDS011;6550;48.650;8.774;2023-02-01T07:26:07;2.57;;;2.20;;
12970;SDS011;6550;48.650;8.774;2023-02-01T07:28:35;3.25;;;2.25;;
12970;SDS011;6550;48.650;8.774;2023-02-01T07:31:14;4.73;;;2.50;;
12970;SDS011;6550;48.650;8.774;2023-02-01T07:33:44;4.33;;;2.40;;
12970;SDS011;6550;48.650;8.774;2023-02-01T07:36:11;2.83;;;2.03;;
12970;SDS011;6550;48.650;8.774;2023-02-01T07:38:40;2.50;;;1.93;;
12970;SDS011;6550;48.650;8.774;2023-02-01T07:41:07;3.20;;;2.42;;
12970;SDS011;6550;48.650;8.774;2023-02-01T07:43:35;2.67;;;2.43;;
12970;SDS011;6550;48.650;8.774;2023-02-01T07:46:03;3.00;;;2.67;;
12970;SDS011;6550;48.650;8.774;2023-02-01T07:48:31;3.43;;;2.37;;
12970;SDS011;6550;48.650;8.774;2023-02-01T07:51:01;5.10;;;2.37;;
12970;SDS011;6550;48.650;8.774;2023-02-01T07:53:28;4.00;;;2.40;;
12970;SDS011;6550;48.650;8.774;2023-02-01T07:55:55;3.17;;;2.50;;
12970;SDS011;6550;48.650;8.774;2023-02-01T07:58:25;2.60;;;2.40;;
12970;SDS011;6550;48.650;8.774;2023-02-01T08:00:53;3.43;;;2.70;;
12970;SDS011;6550;48.650;8.774;2023-02-01T08:03:38;3.47;;;2.50;;
12970;SDS011;6550;48.650;8.774;2023-02-01T08:06:08;4.47;;;3.10;;
12970;SDS011;6550;48.650;8.774;2023-02-01T08:08:35;3.10;;;2.70;;
12970;SDS011;6550;48.650;8.774;2023-02-01T08:11:04;3.67;;;2.90;;
12970;SDS011;6550;48.650;8.774;2023-02-01T08:13:35;5.23;;;3.27;;
12970;SDS011;6550;48.650;8.774;2023-02-01T08:16:03;3.30;;;2.50;;
12970;SDS011;6550;48.650;8.774;2023-02-01T08:18:34;4.53;;;3.07;;
12970;SDS011;6550;48.650;8.774;2023-02-01T08:21:06;2.20;;;2.00;;
12970;SDS011;6550;48.650;8.774;2023-02-01T08:23:34;3.73;;;2.80;;
12970;SDS011;6550;48.650;8.774;2023-02-01T08:26:10;4.13;;;2.50;;
12970;SDS011;6550;48.650;8.774;2023-02-01T08:28:42;3.77;;;2.70;;
12970;SDS011;6550;48.650;8.774;2023-02-01T08:31:13;10.33;;;2.87;;
12970;SDS011;6550;48.650;8.774;2023-02-01T08:33:43;4.43;;;2.83;;
12970;SDS011;6550;48.650;8.774;2023-02-01T08:36:14;3.70;;;2.67;;
12970;SDS011;6550;48.650;8.774;2023-02-01T08:38:41;4.23;;;2.70;;
12970;SDS011;6550;48.650;8.774;2023-02-01T08:41:11;3.03;;;2.73;;
12970;SDS011;6550;48.650;8.774;2023-02-01T08:43:43;3.23;;;2.57;;
12970;SDS011;6550;48.650;8.774;2023-02-01T08:46:09;4.13;;;2.83;;
12970;SDS011;6550;48.650;8.774;2023-02-01T08:48:39;4.60;;;2.87;;
12970;SDS011;6550;48.650;8.774;2023-02-01T08:51:08;2.60;;;2.20;;
12970;SDS011;6550;48.650;8.774;2023-02-01T08:53:38;3.27;;;2.30;;
12970;SDS011;6550;48.650;8.774;2023-02-01T08:56:11;4.40;;;2.60;;
12970;SDS011;6550;48.650;8.774;2023-02-01T08:58:40;3.13;;;2.20;;
12970;SDS011;6550;48.650;8.774;2023-02-01T09:01:11;3.73;;;2.43;;
12970;SDS011;6550;48.650;8.774;2023-02-01T09:03:43;3.77;;;2.43;;
12970;SDS011;6550;48.650;8.774;2023-02-01T09:06:11;3.77;;;2.73;;
12970;SDS011;6550;48.650;8.774;2023-02-01T09:08:40;5.57;;;2.70;;
12970;SDS011;6550;48.650;8.774;2023-02-01T09:11:09;4.97;;;2.50;;
12970;SDS011;6550;48.650;8.774;2023-02-01T09:13:38;4.60;;;2.37;;
12970;SDS011;6550;48.650;8.774;2023-02-01T09:16:05;4.73;;;2.67;;
12970;SDS011;6550;48.650;8.774;2023-02-01T09:18:31;5.88;;;2.90;;
12970;SDS011;6550;48.650;8.774;2023-02-01T09:20:58;3.70;;;2.77;;
12970;SDS011;6550;48.650;8.774;2023-02-01T09:23:25;4.10;;;2.60;;
12970;SDS011;6550;48.650;8.774;2023-02-01T09:25:58;3.73;;;2.80;;
12970;SDS011;6550;48.650;8.774;2023-02-01T09:28:28;4.60;;;2.80;;
12970;SDS011;6550;48.650;8.774;2023-02-01T09:30:59;6.27;;;2.63;;
12970;SDS011;6550;48.650;8.774;2023-02-01T09:33:27;4.40;;;2.73;;
12970;SDS011;6550;48.650;8.774;2023-02-01T09:35:55;5.87;;;2.63;;
12970;SDS011;6550;48.650;8.774;2023-02-01T09:38:31;6.28;;;3.53;;
12970;SDS011;6550;48.650;8.774;2023-02-01T09:40:59;3.27;;;2.77;;
12970;SDS011;6550;48.650;8.774;2023-02-01T09:43:48;4.60;;;2.33;;
12970;SDS011;6550;48.650;8.774;2023-02-01T09:46:32;5.53;;;2.57;;
12970;SDS011;6550;48.650;8.774;2023-02-01T09:49:01;5.00;;;3.10;;
12970;SDS011;6550;48.650;8.774;2023-02-01T09:51:36;3.57;;;2.83;;
12970;SDS011;6550;48.650;8.774;2023-02-01T09:54:13;4.93;;;3.10;;
12970;SDS011;6550;48.650;8.774;2023-02-01T09:59:53;5.40;;;2.20;;
12970;SDS011;6550;48.650;8.774;2023-02-01T10:02:36;6.80;;;2.50;;
12970;SDS011;6550;48.650;8.774;2023-02-01T10:05:11;5.13;;;2.47;;
12970;SDS011;6550;48.650;8.774;2023-02-01T10:16:01;5.00;;;2.70;;
12970;SDS011;6550;48.650;8.774;2023-02-01T10:26:44;9.63;;;2.97;;
12970;SDS011;6550;48.650;8.774;2023-02-01T10:29:21;8.03;;;2.70;;
12970;SDS011;6550;48.650;8.774;2023-02-01T10:31:52;5.13;;;2.50;;
12970;SDS011;6550;48.650;8.774;2023-02-01T10:34:29;10.53;;;2.60;;
12970;SDS011;6550;48.650;8.774;2023-02-01T10:37:17;12.17;;;2.90;;
12970;SDS011;6550;48.650;8.774;2023-02-01T10:39:53;5.72;;;2.50;;
12970;SDS011;6550;48.650;8.774;2023-02-01T10:42:27;6.00;;;2.60;;
12970;SDS011;6550;48.650;8.774;2023-02-01T10:44:56;4.50;;;2.33;;
12970;SDS011;6550;48.650;8.774;2023-02-01T10:47:25;6.53;;;2.23;;
12970;SDS011;6550;48.650;8.774;2023-02-01T10:50:03;7.23;;;2.30;;
12970;SDS011;6550;48.650;8.774;2023-02-01T10:52:46;7.38;;;2.67;;
12970;SDS011;6550;48.650;8.774;2023-02-01T10:55:29;9.23;;;2.60;;
12970;SDS011;6550;48.650;8.774;2023-02-01T10:58:06;9.20;;;2.80;;
12970;SDS011;6550;48.650;8.774;2023-02-01T11:00:56;7.93;;;2.77;;
12970;SDS011;6550;48.650;8.774;2023-02-01T11:08:53;6.20;;;2.73;;
12970;SDS011;6550;48.650;8.774;2023-02-01T11:11:23;9.60;;;3.40;;
12970;SDS011;6550;48.650;8.774;2023-02-01T11:14:08;9.30;;;2.93;;
12970;SDS011;6550;48.650;8.774;2023-02-01T11:16:40;6.53;;;2.90;;
12970;SDS011;6550;48.650;8.774;2023-02-01T11:19:13;5.13;;;2.57;;
12970;SDS011;6550;48.650;8.774;2023-02-01T11:21:41;6.90;;;3.07;;
12970;SDS011;6550;48.650;8.774;2023-02-01T11:27:03;6.13;;;2.40;;
12970;SDS011;6550;48.650;8.774;2023-02-01T11:29:48;7.90;;;2.83;;
12970;SDS011;6550;48.650;8.774;2023-02-01T11:32:22;4.13;;;2.70;;
12970;SDS011;6550;48.650;8.774;2023-02-01T11:34:53;5.27;;;2.27;;
12970;SDS011;6550;48.650;8.774;2023-02-01T11:37:25;7.27;;;2.90;;
12970;SDS011;6550;48.650;8.774;2023-02-01T11:40:04;6.93;;;3.00;;
12970;SDS011;6550;48.650;8.774;2023-02-01T11:42:58;7.88;;;3.42;;
12970;SDS011;6550;48.650;8.774;2023-02-01T11:45:28;7.87;;;2.60;;
12970;SDS011;6550;48.650;8.774;2023-02-01T11:47:57;6.07;;;2.70;;
12970;SDS011;6550;48.650;8.774;2023-02-01T12:12:19;8.13;;;3.20;;
12970;SDS011;6550;48.650;8.774;2023-02-01T12:21:06;7.33;;;2.90;;
12970;SDS011;6550;48.650;8.774;2023-02-01T12:24:06;5.90;;;2.80;;
12970;SDS011;6550;48.650;8.774;2023-02-01T12:40:34;8.27;;;3.10;;
12970;SDS011;6550;48.650;8.774;2023-02-01T12:43:44;11.67;;;3.77;;
12970;SDS011;6550;48.650;8.774;2023-02-01T12:49:04;9.73;;;4.07;;
12970;SDS011;6550;48.650;8.774;2023-02-01T12:51:39;5.53;;;3.17;;
12970;SDS011;6550;48.650;8.774;2023-02-01T12:54:23;6.57;;;2.90;;
12970;SDS011;6550;48.650;8.774;2023-02-01T12:57:02;6.77;;;3.60;;
12970;SDS011;6550;48.650;8.774;2023-02-01T12:59:40;10.30;;;3.57;;
12970;SDS011;6550;48.650;8.774;2023-02-01T13:05:40;6.03;;;2.87;;
12970;SDS011;6550;48.650;8.774;2023-02-01T13:08:18;6.80;;;3.00;;
12970;SDS011;6550;48.650;8.774;2023-02-01T13:11:12;11.20;;;3.70;;
12970;SDS011;6550;48.650;8.774;2023-02-01T13:13:59;8.93;;;3.40;;
12970;SDS011;6550;48.650;8.774;2023-02-01T13:16:49;4.97;;;3.10;;
12970;SDS011;6550;48.650;8.774;2023-02-01T13:20:26;5.80;;;3.40;;
12970;SDS011;6550;48.650;8.774;2023-02-01T13:22:25;9.33;;;3.30;;
12970;SDS011;6550;48.650;8.774;2023-02-01T13:25:11;8.25;;;3.40;;
12970;SDS011;6550;48.650;8.774;2023-02-01T13:27:42;8.20;;;3.30;;
12970;SDS011;6550;48.650;8.774;2023-02-01T13:41:23;9.00;;;3.73;;
12970;SDS011;6550;48.650;8.774;2023-02-01T13:43:58;11.88;;;4.38;;
12970;SDS011;6550;48.650;8.774;2023-02-01T13:46:42;7.87;;;3.60;;
12970;SDS011;6550;48.650;8.774;2023-02-01T13:49:25;7.57;;;3.63;;
12970;SDS011;6550;48.650;8.774;2023-02-01T13:51:55;7.63;;;3.40;;
12970;SDS011;6550;48.650;8.774;2023-02-01T13:54:30;8.87;;;3.17;;
12970;SDS011;6550;48.650;8.774;2023-02-01T13:56:59;9.73;;;3.30;;
12970;SDS011;6550;48.650;8.774;2023-02-01T14:05:10;4.80;;;2.70;;
12970;SDS011;6550;48.650;8.774;2023-02-01T14:26:27;5.43;;;2.60;;
12970;SDS011;6550;48.650;8.774;2023-02-01T14:40:06;3.50;;;1.90;;
12970;SDS011;6550;48.650;8.774;2023-02-01T14:42:50;6.23;;;2.90;;
12970;SDS011;6550;48.650;8.774;2023-02-01T14:47:46;4.13;;;2.40;;
12970;SDS011;6550;48.650;8.774;2023-02-01T15:04:09;7.13;;;2.80;;
12970;SDS011;6550;48.650;8.774;2023-02-01T15:06:43;7.07;;;2.50;;
12970;SDS011;6550;48.650;8.774;2023-02-01T15:17:24;5.47;;;2.73;;
12970;SDS011;6550;48.650;8.774;2023-02-01T15:22:23;5.57;;;2.30;;
12970;SDS011;6550;48.650;8.774;2023-02-01T15:24:54;5.65;;;2.80;;
12970;SDS011;6550;48.650;8.774;2023-02-01T15:27:23;5.50;;;2.90;;
12970;SDS011;6550;48.650;8.774;2023-02-01T15:29:50;6.60;;;2.50;;
12970;SDS011;6550;48.650;8.774;2023-02-01T15:32:33;6.47;;;2.60;;
12970;SDS011;6550;48.650;8.774;2023-02-01T15:35:05;6.07;;;2.50;;
12970;SDS011;6550;48.650;8.774;2023-02-01T15:38:17;7.37;;;2.90;;
12970;SDS011;6550;48.650;8.774;2023-02-01T15:43:36;4.33;;;2.20;;
12970;SDS011;6550;48.650;8.774;2023-02-01T15:46:07;5.10;;;2.53;;
12970;SDS011;6550;48.650;8.774;2023-02-01T15:48:42;7.70;;;2.93;;
12970;SDS011;6550;48.650;8.774;2023-02-01T15:51:35;4.53;;;2.60;;
12970;SDS011;6550;48.650;8.774;2023-02-01T15:54:04;8.45;;;3.17;;
12970;SDS011;6550;48.650;8.774;2023-02-01T15:56:34;6.53;;;2.97;;
12970;SDS011;6550;48.650;8.774;2023-02-01T15:59:06;7.57;;;3.30;;
12970;SDS011;6550;48.650;8.774;2023-02-01T16:01:44;5.80;;;2.83;;
12970;SDS011;6550;48.650;8.774;2023-02-01T16:06:45;7.30;;;3.20;;
12970;SDS011;6550;48.650;8.774;2023-02-01T16:09:20;7.90;;;3.20;;
12970;SDS011;6550;48.650;8.774;2023-02-01T16:11:58;9.18;;;3.67;;
12970;SDS011;6550;48.650;8.774;2023-02-01T16:14:29;9.23;;;3.30;;
12970;SDS011;6550;48.650;8.774;2023-02-01T16:17:00;5.17;;;2.97;;
12970;SDS011;6550;48.650;8.774;2023-02-01T16:19:26;7.40;;;3.47;;
12970;SDS011;6550;48.650;8.774;2023-02-01T16:21:56;7.97;;;3.07;;
12970;SDS011;6550;48.650;8.774;2023-02-01T16:24:23;6.83;;;3.43;;
12970;SDS011;6550;48.650;8.774;2023-02-01T16:26:52;8.10;;;3.97;;
12970;SDS011;6550;48.650;8.774;2023-02-01T16:29:18;8.00;;;4.67;;
12970;SDS011;6550;48.650;8.774;2023-02-01T16:31:47;10.63;;;4.40;;
12970;SDS011;6550;48.650;8.774;2023-02-01T16:34:17;8.90;;;4.20;;
12970;SDS011;6550;48.650;8.774;2023-02-01T16:36:47;6.53;;;3.53;;
12970;SDS011;6550;48.650;8.774;2023-02-01T16:39:18;6.37;;;3.90;;
12970;SDS011;6550;48.650;8.774;2023-02-01T16:41:46;10.97;;;4.60;;
12970;SDS011;6550;48.650;8.774;2023-02-01T16:44:16;11.00;;;4.60;;
12970;SDS011;6550;48.650;8.774;2023-02-01T16:46:47;9.27;;;4.33;;
12970;SDS011;6550;48.650;8.774;2023-02-01T16:49:23;6.87;;;4.23;;
12970;SDS011;6550;48.650;8.774;2023-02-01T16:51:51;7.97;;;4.60;;
12970;SDS011;6550;48.650;8.774;2023-02-01T16:54:23;11.53;;;4.53;;
12970;SDS011;6550;48.650;8.774;2023-02-01T16:56:50;7.30;;;4.30;;
12970;SDS011;6550;48.650;8.774;2023-02-01T16:59:16;10.07;;;4.80;;
12970;SDS011;6550;48.650;8.774;2023-02-01T17:01:43;8.70;;;5.33;;
12970;SDS011;6550;48.650;8.774;2023-02-01T17:04:10;6.77;;;4.47;;
12970;SDS011;6550;48.650;8.774;2023-02-01T17:06:37;9.33;;;5.10;;
12970;SDS011;6550;48.650;8.774;2023-02-01T17:09:05;11.60;;;5.43;;
12970;SDS011;6550;48.650;8.774;2023-02-01T17:11:32;8.88;;;5.38;;
12970;SDS011;6550;48.650;8.774;2023-02-01T17:14:18;9.40;;;5.20;;
12970;SDS011;6550;48.650;8.774;2023-02-01T17:16:48;10.83;;;5.80;;
12970;SDS011;6550;48.650;8.774;2023-02-01T17:19:19;9.77;;;5.37;;
12970;SDS011;6550;48.650;8.774;2023-02-01T17:21:50;9.57;;;4.83;;
12970;SDS011;6550;48.650;8.774;2023-02-01T17:24:24;9.75;;;5.75;;
12970;SDS011;6550;48.650;8.774;2023-02-01T17:27:04;6.90;;;4.47;;
12970;SDS011;6550;48.650;8.774;2023-02-01T17:29:33;10.03;;;5.00;;
12970;SDS011;6550;48.650;8.774;2023-02-01T17:32:02;8.97;;;5.00;;
12970;SDS011;6550;48.650;8.774;2023-02-01T17:34:32;9.70;;;4.80;;
12970;SDS011;6550;48.650;8.774;2023-02-01T17:37:00;7.83;;;5.13;;
12970;SDS011;6550;48.650;8.774;2023-02-01T17:39:29;7.80;;;5.23;;
12970;SDS011;6550;48.650;8.774;2023-02-01T17:42:14;10.93;;;5.47;;
12970;SDS011;6550;48.650;8.774;2023-02-01T17:44:44;9.50;;;5.47;;
12970;SDS011;6550;48.650;8.774;2023-02-01T17:47:13;10.77;;;5.87;;
12970;SDS011;6550;48.650;8.774;2023-02-01T17:49:39;9.83;;;4.90;;
12970;SDS011;6550;48.650;8.774;2023-02-01T17:52:07;9.30;;;4.80;;
12970;SDS011;6550;48.650;8.774;2023-02-01T17:54:40;10.90;;;7.03;;
12970;SDS011;6550;48.650;8.774;2023-02-01T17:57:13;9.27;;;6.73;;
12970;SDS011;6550;48.650;8.774;2023-02-01T17:59:39;11.40;;;6.07;;
12970;SDS011;6550;48.650;8.774;2023-02-01T18:02:23;10.10;;;5.87;;
12970;SDS011;6550;48.650;8.774;2023-02-01T18:04:51;16.03;;;7.10;;
12970;SDS011;6550;48.650;8.774;2023-02-01T18:07:17;12.73;;;7.77;;
12970;SDS011;6550;48.650;8.774;2023-02-01T18:09:46;12.30;;;6.80;;
12970;SDS011;6550;48.650;8.774;2023-02-01T18:12:21;10.70;;;7.10;;
12970;SDS011;6550;48.650;8.774;2023-02-01T18:14:50;12.40;;;7.10;;
12970;SDS011;6550;48.650;8.774;2023-02-01T18:17:17;14.00;;;6.97;;
12970;SDS011;6550;48.650;8.774;2023-02-01T18:19:46;10.03;;;6.03;;
12970;SDS011;6550;48.650;8.774;2023-02-01T18:22:15;8.90;;;5.80;;
12970;SDS011;6550;48.650;8.774;2023-02-01T18:24:44;10.90;;;5.60;;
12970;SDS011;6550;48.650;8.774;2023-02-01T18:27:13;8.87;;;5.00;;
12970;SDS011;6550;48.650;8.774;2023-02-01T18:29:39;7.40;;;4.47;;
12970;SDS011;6550;48.650;8.774;2023-02-01T18:32:07;10.63;;;5.17;;
12970;SDS011;6550;48.650;8.774;2023-02-01T18:34:35;8.33;;;4.77;;
12970;SDS011;6550;48.650;8.774;2023-02-01T18:37:06;10.53;;;4.83;;
12970;SDS011;6550;48.650;8.774;2023-02-01T18:39:35;8.47;;;4.63;;
12970;SDS011;6550;48.650;8.774;2023-02-01T18:42:04;8.00;;;4.40;;
12970;SDS011;6550;48.650;8.774;2023-02-01T18:44:31;8.32;;;4.75;;
12970;SDS011;6550;48.650;8.774;2023-02-01T18:47:00;8.87;;;4.60;;
12970;SDS011;6550;48.650;8.774;2023-02-01T18:49:26;7.13;;;4.37;;